createdAt,value
2024-01-30T00:00:30.676Z,4.13
2024-01-30T00:02:58.962Z,4.03
2024-01-30T00:05:25.976Z,4.28
2024-01-30T00:07:53.061Z,4.13
2024-01-30T00:10:20.201Z,4.00
2024-01-30T00:12:47.558Z,4.05
2024-01-30T00:15:14.772Z,3.92
2024-01-30T00:17:41.772Z,4.15
2024-01-30T00:20:11.613Z,4.05
2024-01-30T00:22:38.629Z,4.25
2024-01-30T00:25:06.387Z,4.45
2024-01-30T00:27:33.427Z,4.15
2024-01-30T00:30:00.472Z,3.95
2024-01-30T00:32:27.480Z,4.28
2024-01-30T00:34:54.404Z,3.88
2024-01-30T00:37:22.741Z,4.22
2024-01-30T00:39:49.687Z,4.03
2024-01-30T00:42:16.716Z,4.03
2024-01-30T00:44:43.676Z,3.85
2024-01-30T00:47:10.599Z,4.78
2024-01-30T00:49:37.789Z,4.15
2024-01-30T00:52:05.638Z,4.05
2024-01-30T00:54:34.090Z,4.35
2024-01-30T00:57:01.054Z,4.18
2024-01-30T00:59:27.969Z,3.95
2024-01-30T01:01:55.076Z,3.92
2024-01-30T01:04:22.018Z,3.72
2024-01-30T01:06:49.096Z,3.90
2024-01-30T01:09:16.096Z,4.10
2024-01-30T01:11:44.366Z,4.07
2024-01-30T01:14:11.310Z,3.85
2024-01-30T01:16:38.293Z,4.32
2024-01-30T01:19:05.411Z,3.97
2024-01-30T01:21:32.444Z,4.15
2024-01-30T01:23:59.359Z,4.28
2024-01-30T01:26:26.284Z,4.47
2024-01-30T01:28:54.554Z,4.38
2024-01-30T01:31:21.520Z,4.53
2024-01-30T01:33:48.552Z,4.70
2024-01-30T01:36:15.588Z,4.65
2024-01-30T01:38:42.540Z,4.15
2024-01-30T01:41:09.477Z,4.47
2024-01-30T01:43:36.409Z,4.82
2024-01-30T01:46:05.101Z,4.20
2024-01-30T01:48:32.259Z,4.32
2024-01-30T01:51:00.667Z,3.92
2024-01-30T01:53:28.056Z,4.10
2024-01-30T01:55:56.422Z,4.28
2024-01-30T01:58:26.688Z,4.47
2024-01-30T02:00:54.129Z,4.45
2024-01-30T02:03:22.605Z,4.32
2024-01-30T02:05:51.560Z,4.38
2024-01-30T02:08:18.675Z,4.47
2024-01-30T02:10:45.768Z,3.80
2024-01-30T02:13:12.876Z,4.35
2024-01-30T02:15:40.844Z,4.60
2024-01-30T02:18:07.941Z,4.25
2024-01-30T02:20:37.763Z,4.57
2024-01-30T02:23:08.277Z,4.60
2024-01-30T02:25:39.942Z,4.80
2024-01-30T02:28:07.423Z,4.75
2024-01-30T02:30:34.456Z,4.43
2024-01-30T02:33:01.402Z,4.22
2024-01-30T02:35:28.427Z,4.35
2024-01-30T02:37:55.358Z,4.50
2024-01-30T02:40:23.737Z,4.05
2024-01-30T02:42:50.705Z,3.95
2024-01-30T02:45:18.227Z,4.60
2024-01-30T02:47:45.245Z,4.43
2024-01-30T02:50:12.371Z,4.85
2024-01-30T02:52:39.445Z,4.18
2024-01-30T02:55:07.720Z,4.30
2024-01-30T02:57:36.104Z,4.57
2024-01-30T03:00:03.603Z,4.28
2024-01-30T03:02:30.559Z,4.38
2024-01-30T03:05:00.290Z,4.78
2024-01-30T03:09:54.822Z,4.70
2024-01-30T03:12:21.777Z,4.22
2024-01-30T03:14:50.250Z,4.65
2024-01-30T03:17:17.225Z,4.30
2024-01-30T03:19:44.375Z,4.43
2024-01-30T03:22:11.395Z,4.22
2024-01-30T03:24:38.338Z,4.72
2024-01-30T03:27:05.324Z,4.30
2024-01-30T03:29:32.285Z,4.15
2024-01-30T03:32:00.588Z,4.00
2024-01-30T03:34:27.617Z,4.43
2024-01-30T03:36:54.748Z,4.18
2024-01-30T03:39:21.754Z,4.63
2024-01-30T03:41:48.631Z,4.28
2024-01-30T03:44:15.593Z,4.53
2024-01-30T03:46:42.487Z,4.47
2024-01-30T03:49:11.071Z,4.40
2024-01-30T03:51:38.077Z,4.38
2024-01-30T03:54:05.149Z,4.30
2024-01-30T03:56:32.089Z,4.05
2024-01-30T03:58:59.136Z,4.60
2024-01-30T04:01:26.169Z,4.63
2024-01-30T04:03:53.234Z,4.93
2024-01-30T04:06:21.678Z,4.32
2024-01-30T04:08:48.599Z,4.72
2024-01-30T04:11:15.942Z,4.63
2024-01-30T04:13:42.840Z,4.55
2024-01-30T04:16:09.823Z,4.05
2024-01-30T04:18:36.842Z,4.82
2024-01-30T04:21:03.880Z,5.07
2024-01-30T04:23:32.133Z,4.47
2024-01-30T04:25:59.054Z,4.50
2024-01-30T04:28:25.974Z,4.20
2024-01-30T04:30:52.961Z,4.25
2024-01-30T04:33:20.153Z,4.35
2024-01-30T04:35:47.171Z,4.45
2024-01-30T04:38:14.120Z,4.38
2024-01-30T04:40:42.406Z,4.40
2024-01-30T04:43:09.357Z,4.13
2024-01-30T04:45:36.324Z,4.88
2024-01-30T04:48:03.686Z,4.80
2024-01-30T04:50:30.619Z,4.53
2024-01-30T04:52:57.615Z,4.75
2024-01-30T04:55:24.570Z,4.60
2024-01-30T04:57:52.916Z,4.93
2024-01-30T05:00:20.400Z,5.13
2024-01-30T05:02:47.309Z,4.82
2024-01-30T05:05:14.527Z,4.90
2024-01-30T05:07:42.695Z,4.65
2024-01-30T05:10:10.445Z,4.75
2024-01-30T05:12:37.432Z,4.85
2024-01-30T05:15:06.722Z,4.60
2024-01-30T05:17:33.734Z,5.03
2024-01-30T05:20:00.860Z,4.75
2024-01-30T05:22:27.890Z,5.65
2024-01-30T05:24:54.858Z,4.82
2024-01-30T05:27:21.763Z,5.32
2024-01-30T05:29:48.671Z,5.50
2024-01-30T05:32:16.898Z,5.10
2024-01-30T05:34:43.865Z,4.97
2024-01-30T05:37:10.887Z,5.38
2024-01-30T05:39:37.823Z,5.15
2024-01-30T05:42:05.366Z,5.28
2024-01-30T05:44:32.332Z,5.35
2024-01-30T05:46:59.227Z,5.20
2024-01-30T05:49:27.519Z,5.72
2024-01-30T05:51:54.458Z,5.60
2024-01-30T05:54:21.414Z,5.22
2024-01-30T05:56:48.374Z,5.45
2024-01-30T05:59:15.326Z,6.15
2024-01-30T06:01:47.596Z,5.68
2024-01-30T06:06:43.024Z,5.85
2024-01-30T06:09:09.946Z,5.47
2024-01-30T06:11:36.849Z,6.30
2024-01-30T06:14:03.852Z,5.45
2024-01-30T06:16:30.971Z,5.82
2024-01-30T06:18:58.187Z,6.40
2024-01-30T06:21:25.257Z,5.40
2024-01-30T06:23:55.747Z,5.93
2024-01-30T06:26:22.715Z,6.00
2024-01-30T06:28:49.594Z,5.97
2024-01-30T06:31:16.604Z,5.65
2024-01-30T06:33:43.876Z,5.75
2024-01-30T06:36:10.853Z,5.40
2024-01-30T06:38:37.789Z,5.70
2024-01-30T06:41:06.221Z,5.50
2024-01-30T06:43:33.159Z,4.85
2024-01-30T06:46:01.031Z,5.80
2024-01-30T06:48:27.969Z,5.28
2024-01-30T06:50:55.037Z,5.75
2024-01-30T06:53:21.968Z,5.45
2024-01-30T06:55:48.889Z,5.75
2024-01-30T06:58:17.194Z,5.00
2024-01-30T07:00:44.222Z,5.93
2024-01-30T07:03:11.166Z,5.82
2024-01-30T07:05:38.097Z,5.65
2024-01-30T07:08:05.725Z,4.90
2024-01-30T07:10:32.932Z,5.75
2024-01-30T07:13:01.338Z,5.72
2024-01-30T07:15:29.749Z,6.07
2024-01-30T07:17:56.678Z,5.45
2024-01-30T07:20:24.082Z,5.80
2024-01-30T07:22:51.186Z,5.68
2024-01-30T07:25:18.103Z,5.78
2024-01-30T07:27:45.118Z,5.75
2024-01-30T07:30:12.966Z,5.63
2024-01-30T07:32:41.247Z,5.25
2024-01-30T07:35:09.676Z,5.45
2024-01-30T07:37:37.300Z,5.13
2024-01-30T07:40:05.768Z,5.05
2024-01-30T07:42:33.129Z,5.60
2024-01-30T07:45:00.270Z,5.90
2024-01-30T07:47:27.355Z,5.93
2024-01-30T07:49:55.937Z,6.00
2024-01-30T07:52:23.069Z,5.63
2024-01-30T07:54:50.292Z,5.93
2024-01-30T07:57:17.295Z,5.60
2024-01-30T07:59:44.398Z,5.72
2024-01-30T08:02:11.356Z,6.35
2024-01-30T08:04:38.419Z,6.10
2024-01-30T08:07:06.873Z,5.68
2024-01-30T08:09:33.883Z,6.25
2024-01-30T08:12:00.835Z,6.25
2024-01-30T08:14:27.718Z,5.90
2024-01-30T08:16:54.593Z,6.35
2024-01-30T08:19:21.583Z,6.25
2024-01-30T08:21:48.592Z,6.15
2024-01-30T08:24:16.993Z,6.75
2024-01-30T08:26:43.908Z,6.22
2024-01-30T08:29:11.101Z,6.55
2024-01-30T08:31:38.184Z,6.35
2024-01-30T08:34:05.518Z,6.80
2024-01-30T08:36:32.536Z,6.85
2024-01-30T08:39:02.167Z,6.10
2024-01-30T08:41:32.448Z,6.63
2024-01-30T08:43:59.430Z,5.97
2024-01-30T08:46:26.413Z,6.40
2024-01-30T08:48:53.766Z,6.70
2024-01-30T08:51:20.730Z,6.85
2024-01-30T08:53:47.632Z,6.68
2024-01-30T08:56:14.625Z,6.45
2024-01-30T08:58:42.878Z,6.20
2024-01-30T09:01:09.903Z,7.20
2024-01-30T09:03:36.802Z,6.95
2024-01-30T09:06:04.225Z,7.28
2024-01-30T09:08:31.127Z,6.70
2024-01-30T09:10:58.120Z,6.93
2024-01-30T09:13:25.074Z,6.80
2024-01-30T09:15:53.376Z,7.28
2024-01-30T09:18:20.262Z,6.95
2024-01-30T09:20:47.205Z,6.65
2024-01-30T09:23:14.136Z,6.72
2024-01-30T09:25:41.050Z,6.55
2024-01-30T09:28:07.996Z,6.22
2024-01-30T09:30:34.913Z,7.10
2024-01-30T09:33:03.796Z,6.22
2024-01-30T09:35:30.809Z,6.30
2024-01-30T09:37:57.750Z,6.13
2024-01-30T09:40:25.688Z,6.05
2024-01-30T09:42:52.824Z,6.18
2024-01-30T09:45:20.101Z,6.10
2024-01-30T09:47:47.600Z,5.60
2024-01-30T09:50:17.395Z,5.72
2024-01-30T09:52:45.867Z,5.38
2024-01-30T09:55:12.928Z,5.60
2024-01-30T09:57:40.536Z,5.80
2024-01-30T10:00:08.440Z,5.82
2024-01-30T10:02:42.140Z,6.15
2024-01-30T10:05:10.190Z,5.90
2024-01-30T10:07:38.618Z,5.72
2024-01-30T10:10:07.143Z,6.32
2024-01-30T10:12:34.052Z,6.03
2024-01-30T10:15:00.957Z,5.63
2024-01-30T10:17:32.617Z,6.05
2024-01-30T10:20:02.218Z,6.40
2024-01-30T10:22:29.936Z,6.03
2024-01-30T10:24:58.460Z,6.47
2024-01-30T10:27:26.987Z,6.10
2024-01-30T10:29:54.056Z,6.15
2024-01-30T10:32:21.356Z,6.60
2024-01-30T10:34:48.447Z,6.13
2024-01-30T10:37:17.254Z,6.28
2024-01-30T10:39:46.410Z,6.40
2024-01-30T10:42:18.170Z,6.15
2024-01-30T10:45:00.837Z,6.63
2024-01-30T10:47:30.207Z,5.63
2024-01-30T10:49:58.108Z,6.25
2024-01-30T10:52:27.239Z,6.20
2024-01-30T10:54:55.893Z,6.53
2024-01-30T10:57:25.742Z,6.30
2024-01-30T10:59:56.304Z,6.28
2024-01-30T11:02:25.030Z,6.85
2024-01-30T11:04:58.176Z,6.85
2024-01-30T11:07:29.473Z,6.90
2024-01-30T11:10:04.449Z,6.68
2024-01-30T11:12:34.580Z,6.38
2024-01-30T11:15:07.027Z,6.65
2024-01-30T11:17:45.191Z,6.82
2024-01-30T11:20:13.286Z,6.38
2024-01-30T11:22:43.415Z,6.75
2024-01-30T11:25:13.829Z,6.60
2024-01-30T11:27:42.973Z,6.45
2024-01-30T11:30:10.427Z,6.80
2024-01-30T11:32:37.672Z,6.25
2024-01-30T11:35:06.437Z,6.07
2024-01-30T11:37:38.034Z,6.18
2024-01-30T11:40:06.366Z,6.97
2024-01-30T11:42:33.629Z,6.40
2024-01-30T11:45:02.466Z,6.20
2024-01-30T11:47:29.836Z,5.72
2024-01-30T11:49:59.805Z,6.45
2024-01-30T11:52:27.986Z,6.90
2024-01-30T11:54:55.660Z,6.18
2024-01-30T11:57:22.552Z,6.50
2024-01-30T11:59:49.493Z,6.88
2024-01-30T12:02:20.950Z,7.00
2024-01-30T12:04:48.157Z,7.18
2024-01-30T12:07:15.245Z,6.78
2024-01-30T12:09:42.265Z,6.55
2024-01-30T12:12:09.564Z,6.30
2024-01-30T12:14:36.997Z,7.20
2024-01-30T12:17:04.536Z,6.40
2024-01-30T12:19:32.887Z,6.07
2024-01-30T12:22:00.244Z,7.15
2024-01-30T12:24:28.138Z,6.97
2024-01-30T12:26:58.631Z,6.88
2024-01-30T12:29:27.562Z,7.10
2024-01-30T12:31:56.338Z,6.53
2024-01-30T12:34:25.704Z,6.65
2024-01-30T12:37:03.090Z,5.57
2024-01-30T12:42:35.197Z,5.97
2024-01-30T12:45:04.562Z,5.82
2024-01-30T12:47:31.841Z,6.88
2024-01-30T12:49:59.053Z,7.00
2024-01-30T12:52:28.370Z,5.72
2024-01-30T12:54:55.679Z,6.10
2024-01-30T12:57:22.694Z,6.13
2024-01-30T12:59:50.846Z,6.50
2024-01-30T13:02:17.859Z,6.65
2024-01-30T13:04:47.539Z,6.57
2024-01-30T13:07:15.908Z,6.82
2024-01-30T13:09:44.212Z,7.28
2024-01-30T13:12:11.146Z,6.30
2024-01-30T13:14:38.059Z,6.70
2024-01-30T13:17:05.217Z,7.38
2024-01-30T13:19:32.260Z,7.10
2024-01-30T13:22:00.166Z,6.35
2024-01-30T13:24:35.244Z,5.95
2024-01-30T13:27:24.916Z,6.97
2024-01-30T13:29:52.294Z,6.05
2024-01-30T13:32:19.326Z,6.05
2024-01-30T13:34:46.987Z,5.97
2024-01-30T13:37:14.119Z,6.18
2024-01-30T13:39:41.393Z,5.75
2024-01-30T13:42:09.886Z,6.03
2024-01-30T13:44:37.225Z,5.82
2024-01-30T13:47:05.045Z,5.40
2024-01-30T13:49:35.373Z,6.03
2024-01-30T13:52:14.248Z,5.40
2024-01-30T13:54:42.543Z,6.32
2024-01-30T13:57:11.182Z,6.07
2024-01-30T13:59:39.337Z,5.57
2024-01-30T14:02:06.916Z,6.22
2024-01-30T14:04:34.019Z,5.57
2024-01-30T14:07:05.111Z,5.68
2024-01-30T14:09:32.628Z,5.68
2024-01-30T14:11:59.518Z,5.78
2024-01-30T14:14:27.960Z,5.72
2024-01-30T14:16:54.927Z,5.70
2024-01-30T14:19:21.939Z,6.22
2024-01-30T14:21:48.907Z,6.07
2024-01-30T14:24:15.804Z,6.55
2024-01-30T14:26:42.850Z,6.15
2024-01-30T14:29:09.731Z,5.60
2024-01-30T14:31:38.100Z,5.57
2024-01-30T14:34:05.061Z,6.30
2024-01-30T14:36:32.176Z,6.60
2024-01-30T14:38:59.047Z,5.80
2024-01-30T14:41:26.002Z,6.35
2024-01-30T14:43:52.874Z,6.03
2024-01-30T14:46:20.130Z,6.95
2024-01-30T14:48:49.943Z,6.65
2024-01-30T14:51:16.942Z,6.55
2024-01-30T14:53:44.389Z,5.80
2024-01-30T14:56:11.703Z,6.30
2024-01-30T14:58:39.084Z,5.38
2024-01-30T15:01:06.149Z,6.03
2024-01-30T15:03:33.549Z,5.65
2024-01-30T15:06:01.848Z,5.07
2024-01-30T15:08:29.055Z,5.40
2024-01-30T15:10:55.992Z,5.57
2024-01-30T15:13:22.888Z,6.28
2024-01-30T15:15:49.907Z,5.75
2024-01-30T15:18:16.987Z,5.93
2024-01-30T15:20:43.981Z,5.57
2024-01-30T15:23:12.325Z,5.20
2024-01-30T15:25:39.385Z,5.35
2024-01-30T15:28:06.776Z,5.38
2024-01-30T15:30:34.010Z,5.72
2024-01-30T15:33:01.062Z,5.45
2024-01-30T15:35:28.335Z,5.35
2024-01-30T15:37:55.306Z,5.60
2024-01-30T15:40:23.585Z,6.57
2024-01-30T15:42:50.572Z,5.63
2024-01-30T15:45:17.520Z,5.32
2024-01-30T15:47:44.401Z,5.15
2024-01-30T15:50:13.243Z,6.72
2024-01-30T15:52:40.341Z,5.90
2024-01-30T15:55:07.514Z,5.72
2024-01-30T15:57:35.832Z,5.93
2024-01-30T16:00:02.788Z,5.22
2024-01-30T16:02:38.802Z,5.15
2024-01-30T16:05:06.959Z,6.13
2024-01-30T16:07:34.103Z,5.10
2024-01-30T16:10:01.488Z,5.53
2024-01-30T16:12:28.475Z,5.85
2024-01-30T16:14:56.820Z,5.53
2024-01-30T16:17:23.730Z,5.70
2024-01-30T16:19:50.890Z,5.72
2024-01-30T16:22:18.079Z,5.35
2024-01-30T16:24:45.303Z,5.18
2024-01-30T16:27:12.228Z,5.60
2024-01-30T16:29:39.174Z,6.43
2024-01-30T16:32:07.979Z,5.80
2024-01-30T16:34:34.928Z,5.90
2024-01-30T16:37:01.897Z,5.75
2024-01-30T16:39:28.838Z,6.50
2024-01-30T16:41:55.763Z,5.72
2024-01-30T16:44:22.737Z,6.00
2024-01-30T16:46:52.341Z,6.13
2024-01-30T16:49:21.001Z,5.32
2024-01-30T16:51:47.927Z,5.47
2024-01-30T16:54:14.903Z,6.53
2024-01-30T16:56:41.886Z,5.75
2024-01-30T16:59:09.192Z,6.55
2024-01-30T17:01:36.231Z,6.05
2024-01-30T17:04:03.211Z,6.40
2024-01-30T17:06:31.656Z,6.60
2024-01-30T17:08:58.618Z,6.20
2024-01-30T17:11:25.511Z,6.18
2024-01-30T17:13:52.402Z,5.95
2024-01-30T17:16:22.005Z,6.35
2024-01-30T17:18:49.345Z,6.07
2024-01-30T17:21:18.115Z,7.13
2024-01-30T17:23:46.436Z,6.47
2024-01-30T17:26:13.690Z,6.28
2024-01-30T17:28:40.815Z,6.00
2024-01-30T17:31:07.854Z,7.03
2024-01-30T17:33:34.988Z,6.85
2024-01-30T17:36:02.000Z,6.80
2024-01-30T17:38:28.897Z,6.55
2024-01-30T17:41:05.262Z,6.28
2024-01-30T17:43:36.614Z,6.65
2024-01-30T17:46:03.611Z,7.03
2024-01-30T17:48:30.577Z,6.80
2024-01-30T17:50:57.560Z,8.32
2024-01-30T17:53:24.525Z,7.32
2024-01-30T17:55:51.461Z,6.88
2024-01-30T17:58:19.772Z,6.53
2024-01-30T18:00:46.874Z,6.50
2024-01-30T18:03:13.842Z,7.32
2024-01-30T18:05:40.740Z,6.40
2024-01-30T18:08:07.919Z,7.20
2024-01-30T18:10:35.171Z,6.82
2024-01-30T18:13:02.150Z,6.72
2024-01-30T18:15:30.417Z,6.97
2024-01-30T18:17:57.384Z,7.05
2024-01-30T18:20:24.354Z,5.60
2024-01-30T18:22:51.254Z,6.13
2024-01-30T18:25:18.250Z,6.18
2024-01-30T18:27:45.183Z,5.97
2024-01-30T18:30:13.111Z,6.10
2024-01-30T18:32:41.432Z,6.07
2024-01-30T18:35:09.081Z,5.38
2024-01-30T18:37:36.157Z,6.32
2024-01-30T18:40:03.492Z,6.30
2024-01-30T18:42:30.383Z,5.38
2024-01-30T18:44:57.291Z,4.82
2024-01-30T18:47:24.297Z,5.07
2024-01-30T18:49:52.971Z,4.80
2024-01-30T18:52:20.153Z,4.40
2024-01-30T18:54:47.104Z,3.78
2024-01-30T18:57:14.385Z,3.30
2024-01-30T18:59:41.276Z,2.92
2024-01-30T19:02:08.697Z,2.83
2024-01-30T19:04:35.828Z,2.25
2024-01-30T19:07:04.729Z,1.90
2024-01-30T19:09:31.665Z,1.85
2024-01-30T19:11:58.607Z,1.88
2024-01-30T19:14:25.658Z,1.40
2024-01-30T19:16:53.898Z,1.40
2024-01-30T19:19:21.013Z,2.05
2024-01-30T19:21:47.965Z,1.40
2024-01-30T19:24:16.272Z,1.73
2024-01-30T19:26:43.202Z,1.50
2024-01-30T19:29:10.103Z,1.90
2024-01-30T19:31:37.026Z,1.80
2024-01-30T19:34:04.035Z,1.92
2024-01-30T19:36:31.032Z,1.60
2024-01-30T19:38:57.890Z,1.80
2024-01-30T19:41:26.161Z,1.98
2024-01-30T19:43:53.105Z,1.88
2024-01-30T19:46:20.167Z,1.98
2024-01-30T19:48:47.145Z,1.90
2024-01-30T19:51:14.068Z,2.35
2024-01-30T19:53:40.950Z,1.80
2024-01-30T19:56:08.145Z,2.25
2024-01-30T19:58:36.540Z,2.28
2024-01-30T20:01:06.063Z,2.50
2024-01-30T20:03:33.627Z,2.03
2024-01-30T20:06:00.564Z,2.42
2024-01-30T20:08:27.548Z,2.55
2024-01-30T20:10:54.529Z,2.53
2024-01-30T20:13:21.608Z,2.60
2024-01-30T20:15:50.036Z,2.60
2024-01-30T20:18:17.095Z,2.35
2024-01-30T20:20:44.065Z,2.45
2024-01-30T20:23:11.012Z,2.30
2024-01-30T20:25:38.012Z,2.50
2024-01-30T20:28:06.058Z,2.50
2024-01-30T20:30:32.973Z,2.42
2024-01-30T20:33:01.400Z,2.10
2024-01-30T20:35:28.452Z,2.20
2024-01-30T20:37:55.348Z,2.30
2024-01-30T20:40:22.329Z,2.53
2024-01-30T20:42:49.334Z,2.38
2024-01-30T20:45:16.317Z,2.20
2024-01-30T20:47:43.806Z,2.35
2024-01-30T20:50:12.479Z,2.40
2024-01-30T20:52:39.695Z,2.63
2024-01-30T20:55:07.511Z,2.88
2024-01-30T20:57:34.446Z,2.65
2024-01-30T21:00:01.335Z,2.40
2024-01-30T21:02:28.462Z,3.00
2024-01-30T21:04:55.507Z,2.20
2024-01-30T21:07:24.688Z,2.90
2024-01-30T21:09:51.817Z,2.47
2024-01-30T21:12:18.901Z,2.78
2024-01-30T21:14:45.753Z,2.40
2024-01-30T21:17:12.653Z,2.50
2024-01-30T21:19:39.727Z,2.58
2024-01-30T21:22:06.928Z,2.20
2024-01-30T21:24:35.326Z,2.25
2024-01-30T21:27:02.235Z,2.20
2024-01-30T21:29:29.129Z,2.20
2024-01-30T21:31:56.036Z,2.00
2024-01-30T21:34:23.111Z,2.20
2024-01-30T21:36:50.118Z,2.05
2024-01-30T21:39:17.281Z,2.10
2024-01-30T21:41:45.694Z,1.90
2024-01-30T21:44:12.714Z,1.95
2024-01-30T21:46:39.687Z,2.45
2024-01-30T21:49:06.755Z,2.30
2024-01-30T21:51:33.699Z,2.20
2024-01-30T21:54:00.629Z,1.88
2024-01-30T21:56:27.513Z,1.83
2024-01-30T21:58:55.764Z,2.17
2024-01-30T22:01:22.726Z,1.85
2024-01-30T22:03:51.022Z,1.73
2024-01-30T22:06:17.987Z,1.50
2024-01-30T22:08:45.316Z,1.50
2024-01-30T22:11:12.359Z,1.30
2024-01-30T22:13:39.491Z,1.33
2024-01-30T22:16:08.176Z,1.40
2024-01-30T22:18:35.172Z,1.05
2024-01-30T22:21:02.337Z,0.80
2024-01-30T22:23:29.252Z,0.88
2024-01-30T22:25:56.227Z,1.10
2024-01-30T22:28:23.110Z,1.00
2024-01-30T22:30:50.028Z,0.90
2024-01-30T22:33:18.392Z,0.90
2024-01-30T22:35:45.490Z,0.73
2024-01-30T22:38:12.569Z,0.70
2024-01-30T22:40:39.853Z,1.13
2024-01-30T22:43:07.051Z,0.98
2024-01-30T22:45:34.007Z,1.00
2024-01-30T22:48:01.280Z,1.00
2024-01-30T22:50:29.642Z,1.17
2024-01-30T22:52:56.619Z,1.20
2024-01-30T22:55:23.632Z,1.05
2024-01-30T22:57:50.658Z,1.30
2024-01-30T23:00:18.457Z,1.17
2024-01-30T23:02:45.380Z,1.25
2024-01-30T23:05:12.484Z,1.15
2024-01-30T23:07:40.960Z,1.42
2024-01-30T23:10:09.681Z,0.88
2024-01-30T23:12:36.695Z,0.90
2024-01-30T23:15:04.291Z,0.70
2024-01-30T23:17:31.476Z,1.00
2024-01-30T23:19:58.623Z,1.05
2024-01-30T23:22:25.727Z,0.93
2024-01-30T23:24:54.118Z,0.98
2024-01-30T23:27:21.087Z,0.88
2024-01-30T23:29:47.976Z,1.05
2024-01-30T23:32:22.254Z,0.80
2024-01-30T23:34:52.990Z,0.93
2024-01-30T23:37:19.952Z,0.70
2024-01-30T23:39:46.909Z,0.80
2024-01-30T23:42:15.178Z,0.80
2024-01-30T23:44:42.011Z,0.80
2024-01-30T23:47:08.883Z,0.80
2024-01-30T23:49:35.944Z,0.68
2024-01-30T23:52:03.330Z,0.40
2024-01-30T23:54:30.541Z,0.50
2024-01-30T23:56:58.666Z,0.60
2024-01-30T23:59:26.878Z,0.60
